Time;durP1;ratioP1;P1;durP2;ratioP2;P2;SDS_P1;SDS_P2;PMS_P1;PMS_P2;Temp;Humidity;BMP_temperature;BMP_pressure;BME280_temperature;BME280_humidity;BME280_pressure;Samples;Min_cycle;Max_cycle;Signal;HPM_P1;HPM_P2
2022/02/26 00:00:22;;;;;;;8.27;2.47;;;;;;;1.78;100.00;100091.63;5047253;28;20032;-72
2022/02/26 00:02:47;;;;;;;5.95;1.80;;;;;;;1.94;100.00;100102.03;5047589;28;20040;-72
2022/02/26 00:05:12;;;;;;;7.32;1.90;;;;;;;2.03;100.00;100116.50;5050481;28;20036;-72
2022/02/26 00:07:38;;;;;;;6.38;1.90;;;;;;;2.12;99.62;100113.97;5041858;28;20036;-72
2022/02/26 00:10:04;;;;;;;8.27;2.22;;;;;;;2.04;99.38;100095.00;5036201;28;20029;-72
2022/02/26 00:12:29;;;;;;;6.57;1.85;;;;;;;2.19;99.08;100114.34;5042784;28;20036;-72
2022/02/26 00:14:55;;;;;;;5.78;2.03;;;;;;;2.22;98.84;100106.09;5056133;28;20369;-72
2022/02/26 00:17:20;;;;;;;3.95;1.50;;;;;;;2.24;98.72;100103.31;5053857;28;20028;-72
2022/02/26 00:19:45;;;;;;;6.22;2.25;;;;;;;2.02;98.47;100088.06;5032048;28;20076;-72
2022/02/26 00:22:11;;;;;;;5.43;2.30;;;;;;;2.03;98.87;100113.81;5041689;28;20036;-72
2022/02/26 00:24:36;;;;;;;5.80;1.90;;;;;;;1.85;99.75;100098.22;5043956;28;20044;-72
2022/02/26 00:27:02;;;;;;;3.38;2.05;;;;;;;1.97;99.90;100123.16;5044239;28;20036;-72
2022/02/26 00:29:27;;;;;;;5.05;2.10;;;;;;;1.89;100.00;100113.03;5043012;28;20074;-72
2022/02/26 00:31:53;;;;;;;5.75;1.98;;;;;;;2.12;99.30;100130.00;5044671;28;20044;-72
2022/02/26 00:34:18;;;;;;;8.13;2.55;;;;;;;2.08;100.00;100125.00;5042882;28;20048;-72
2022/02/26 00:36:45;;;;;;;6.28;2.00;;;;;;;2.17;99.48;100138.50;5029958;28;20029;-72
2022/02/26 00:39:10;;;;;;;10.27;2.20;;;;;;;2.21;99.17;100138.25;5053422;28;20037;-73
2022/02/26 00:41:35;;;;;;;7.72;2.22;;;;;;;2.16;99.03;100141.28;5040123;28;20079;-73
2022/02/26 00:44:01;;;;;;;4.93;1.77;;;;;;;2.26;99.08;100147.63;5046712;28;20036;-73
2022/02/26 00:46:26;;;;;;;9.32;2.08;;;;;;;2.25;99.32;100145.06;5052479;28;20098;-73
2022/02/26 00:51:35;;;;;;;6.82;2.20;;;;;;;2.34;98.58;100158.56;5035080;28;20064;-72
2022/02/26 00:54:00;;;;;;;9.75;2.33;;;;;;;2.34;98.06;100149.72;5042124;28;21227;-72
2022/02/26 00:56:26;;;;;;;6.97;2.47;;;;;;;2.39;98.60;100163.56;5053780;28;20036;-72
2022/02/26 00:58:52;;;;;;;8.35;2.40;;;;;;;2.35;98.24;100154.06;5052924;28;20025;-72
2022/02/26 01:01:17;;;;;;;5.28;2.20;;;;;;;2.41;98.40;100170.50;5041906;28;20078;-72
2022/02/26 01:03:43;;;;;;;7.55;2.75;;;;;;;2.40;98.18;100174.09;5032361;28;20033;-72
2022/02/26 01:06:08;;;;;;;6.63;2.63;;;;;;;2.45;97.62;100172.91;5036067;28;20436;-71
2022/02/26 01:08:33;;;;;;;7.05;2.25;;;;;;;2.34;97.09;100155.91;5042433;28;20469;-71
2022/02/26 01:10:58;;;;;;;7.22;2.75;;;;;;;2.30;96.79;100142.88;5042658;28;20033;-71
2022/02/26 01:13:24;;;;;;;7.07;2.83;;;;;;;2.40;97.34;100168.78;5040631;28;20079;-71
2022/02/26 01:15:49;;;;;;;9.85;3.00;;;;;;;2.30;97.18;100159.75;5040157;28;20430;-72
2022/02/26 01:18:15;;;;;;;8.52;2.72;;;;;;;2.42;97.71;100180.19;5041947;28;20033;-72
2022/02/26 01:20:40;;;;;;;9.13;3.47;;;;;;;2.34;97.63;100176.41;5041507;28;20040;-72
2022/02/26 01:23:05;;;;;;;10.35;2.85;;;;;;;2.39;97.94;100195.63;5041473;28;20531;-74
2022/02/26 01:25:31;;;;;;;7.85;2.38;;;;;;;2.32;98.07;100197.03;5040907;28;20037;-72
2022/02/26 01:27:56;;;;;;;7.18;2.95;;;;;;;2.25;97.91;100188.63;5049502;28;20051;-73
2022/02/26 01:30:22;;;;;;;8.15;2.78;;;;;;;2.12;98.77;100179.84;5048066;28;20108;-72
2022/02/26 01:32:47;;;;;;;11.38;3.67;;;;;;;1.94;99.34;100163.41;5041918;28;20461;-72
2022/02/26 01:35:13;;;;;;;5.00;2.67;;;;;;;1.96;99.67;100194.38;5051507;28;20025;-72
2022/02/26 01:37:38;;;;;;;7.85;2.95;;;;;;;1.89;99.83;100187.78;5036049;28;20029;-72
2022/02/26 01:40:05;;;;;;;13.40;2.83;;;;;;;1.96;99.73;100205.03;5042307;28;20020;-72
2022/02/26 01:42:30;;;;;;;7.05;2.65;;;;;;;1.75;99.73;100174.56;5051566;28;20032;-73
2022/02/26 01:44:56;;;;;;;9.82;2.70;;;;;;;1.89;100.00;100198.44;5052361;28;20100;-72
2022/02/26 01:47:21;;;;;;;9.63;2.70;;;;;;;1.91;100.00;100203.66;5048162;28;20485;-72
2022/02/26 01:49:47;;;;;;;8.55;2.60;;;;;;;1.75;99.97;100174.56;5041389;28;20036;-72
2022/02/26 01:52:17;;;;;;;9.25;2.65;;;;;;;1.77;100.00;100203.84;5041461;28;20047;-73
2022/02/26 01:54:45;;;;;;;8.27;2.83;;;;;;;1.67;100.00;100201.81;5021522;28;20051;-72
2022/02/26 01:57:10;;;;;;;7.93;2.95;;;;;;;1.60;100.00;100197.03;5040062;28;20246;-73
2022/02/26 01:59:35;;;;;;;9.13;3.03;;;;;;;1.55;100.00;100194.72;5042088;28;20032;-73
2022/02/26 02:02:01;;;;;;;11.90;3.35;;;;;;;1.35;100.00;100172.16;5046343;28;20039;-72
2022/02/26 02:04:26;;;;;;;8.95;3.15;;;;;;;1.23;100.00;100181.03;5032808;28;20040;-73
2022/02/26 02:06:51;;;;;;;10.77;3.03;;;;;;;1.20;100.00;100191.91;5049635;28;20033;-73
2022/02/26 02:09:17;;;;;;;5.68;3.13;;;;;;;0.99;100.00;100179.16;5055193;28;20033;-72
2022/02/26 02:11:42;;;;;;;7.13;2.97;;;;;;;0.94;100.00;100170.63;5028299;28;20040;-71
2022/02/26 02:14:08;;;;;;;7.05;3.47;;;;;;;0.91;100.00;100189.50;5053467;28;20032;-72
2022/02/26 02:16:36;;;;;;;6.82;3.08;;;;;;;0.94;100.00;100194.59;5052287;28;20094;-72
2022/02/26 02:19:09;;;;;;;10.15;3.80;;;;;;;0.99;100.00;100203.13;5052044;28;20477;-71
2022/02/26 02:21:35;;;;;;;6.47;3.20;;;;;;;1.09;100.00;100200.69;5023436;28;20029;-73
2022/02/26 02:24:01;;;;;;;9.10;3.00;;;;;;;1.19;100.00;100200.88;5047162;28;20032;-71
2022/02/26 02:26:28;;;;;;;10.18;3.17;;;;;;;1.30;100.00;100207.16;5021719;28;20055;-71
2022/02/26 02:28:53;;;;;;;11.38;3.70;;;;;;;1.40;100.00;100211.84;5038845;28;20063;-73
2022/02/26 02:31:19;;;;;;;13.15;4.10;;;;;;;1.45;100.00;100207.88;5022633;28;20162;-73
2022/02/26 02:33:47;;;;;;;10.50;3.80;;;;;;;1.46;100.00;100201.56;5048858;28;20020;-71
2022/02/26 02:36:13;;;;;;;8.15;3.15;;;;;;;1.47;100.00;100207.78;5043868;28;20028;-71
2022/02/26 02:38:39;;;;;;;9.52;3.17;;;;;;;1.40;100.00;100194.03;5051659;28;20151;-71
2022/02/26 02:41:05;;;;;;;13.90;3.75;;;;;;;1.45;100.00;100207.03;5044637;28;20037;-71
2022/02/26 02:43:30;;;;;;;6.55;3.40;;;;;;;1.44;100.00;100208.84;5035795;28;20025;-71
2022/02/26 02:45:56;;;;;;;10.35;3.15;;;;;;;1.21;100.00;100169.66;5038587;28;20104;-71
2022/02/26 02:48:21;;;;;;;8.38;3.20;;;;;;;1.21;100.00;100193.66;5045863;28;20103;-71
2022/02/26 02:50:46;;;;;;;8.88;2.85;;;;;;;1.15;100.00;100192.25;5042730;28;20021;-71
2022/02/26 02:53:12;;;;;;;11.38;4.38;;;;;;;1.22;100.00;100211.34;5033134;28;20031;-71
2022/02/26 02:55:37;;;;;;;6.78;3.08;;;;;;;0.99;100.00;100176.50;5048937;28;20024;-70
2022/02/26 02:58:02;;;;;;;10.95;3.42;;;;;;;1.26;100.00;100221.69;5051101;28;20033;-71
2022/02/26 03:00:29;;;;;;;10.65;3.20;;;;;;;1.17;100.00;100200.13;5049083;28;20032;-71
2022/02/26 03:02:55;;;;;;;10.13;3.08;;;;;;;1.38;100.00;100213.75;5045169;28;20025;-71
2022/02/26 03:05:21;;;;;;;8.20;3.28;;;;;;;1.31;100.00;100208.88;5031990;28;20036;-71
2022/02/26 03:07:51;;;;;;;7.03;2.97;;;;;;;1.45;100.00;100229.22;5046420;28;20032;-71
2022/02/26 03:10:16;;;;;;;8.50;3.40;;;;;;;1.33;100.00;100218.56;5028550;28;20752;-71
2022/02/26 03:12:42;;;;;;;12.90;3.80;;;;;;;1.32;100.00;100220.38;5046128;28;20037;-72
2022/02/26 03:15:08;;;;;;;9.48;3.22;;;;;;;1.28;100.00;100219.75;5045429;28;20024;-72
2022/02/26 03:17:34;;;;;;;9.32;3.42;;;;;;;1.38;100.00;100235.94;5049834;28;20025;-71
2022/02/26 03:19:59;;;;;;;9.70;3.78;;;;;;;1.46;100.00;100243.38;5052493;28;20021;-71
2022/02/26 03:22:25;;;;;;;10.25;4.03;;;;;;;1.59;100.00;100248.69;5052467;28;20029;-71
2022/02/26 03:24:50;;;;;;;9.75;3.35;;;;;;;1.41;100.00;100206.38;5055042;28;20098;-71
2022/02/26 03:27:16;;;;;;;8.13;3.40;;;;;;;1.34;100.00;100218.47;5048614;28;20103;-72
2022/02/26 03:29:42;;;;;;;14.35;4.00;;;;;;;1.49;100.00;100246.72;5054250;28;20096;-71
2022/02/26 03:32:08;;;;;;;7.30;3.38;;;;;;;1.52;100.00;100246.47;5035563;28;20040;-71
2022/02/26 03:34:35;;;;;;;5.55;2.70;;;;;;;1.36;100.00;100239.66;5054356;28;20033;-72
2022/02/26 03:37:01;;;;;;;6.82;3.40;;;;;;;1.41;100.00;100249.03;5052344;28;20115;-71
2022/02/26 03:39:31;;;;;;;9.50;3.90;;;;;;;1.40;100.00;100243.84;5050623;28;20082;-72
2022/02/26 03:41:59;;;;;;;13.52;4.28;;;;;;;1.58;100.00;100263.00;5045002;28;20056;-71
2022/02/26 03:44:25;;;;;;;10.60;4.40;;;;;;;1.64;100.00;100262.56;5043934;28;20035;-72
2022/02/26 03:46:50;;;;;;;13.07;5.28;;;;;;;1.58;100.00;100252.34;5044119;28;20025;-71
2022/02/26 03:49:15;;;;;;;12.00;4.78;;;;;;;1.62;100.00;100262.66;5041758;28;20033;-71
2022/02/26 03:51:41;;;;;;;9.63;4.35;;;;;;;1.68;100.00;100266.72;5042285;28;20031;-71
2022/02/26 03:54:06;;;;;;;10.68;3.63;;;;;;;1.50;100.00;100252.88;5056604;28;20033;-71
2022/02/26 03:56:32;;;;;;;9.63;4.18;;;;;;;1.51;100.00;100274.09;5054452;28;20045;-72
2022/02/26 03:58:57;;;;;;;11.93;4.40;;;;;;;1.46;100.00;100270.06;5034033;28;20063;-71
2022/02/26 04:01:23;;;;;;;14.57;4.68;;;;;;;1.39;100.00;100259.00;5042859;28;20031;-72
2022/02/26 04:03:50;;;;;;;11.00;4.95;;;;;;;1.48;100.00;100271.66;5050107;28;20472;-71
2022/02/26 04:06:16;;;;;;;17.08;5.10;;;;;;;1.31;100.00;100248.03;5049330;28;20021;-71
2022/02/26 04:08:41;;;;;;;10.32;4.45;;;;;;;1.43;100.00;100279.13;5036011;28;20496;-71
2022/02/26 04:11:06;;;;;;;10.88;4.43;;;;;;;1.44;100.00;100291.53;5037470;28;20076;-72
2022/02/26 04:13:32;;;;;;;11.27;4.78;;;;;;;1.48;100.00;100289.47;5039060;28;20095;-72
2022/02/26 04:15:57;;;;;;;11.13;4.22;;;;;;;1.40;100.00;100270.50;5041765;28;20032;-71
2022/02/26 04:18:23;;;;;;;9.93;4.63;;;;;;;1.46;100.00;100286.91;5044833;28;20428;-71
2022/02/26 04:20:48;;;;;;;8.98;4.40;;;;;;;1.47;100.00;100293.97;5053224;28;20026;-71
2022/02/26 04:23:13;;;;;;;10.88;4.32;;;;;;;1.48;100.00;100297.47;5053094;28;20028;-72
2022/02/26 04:25:39;;;;;;;10.77;4.68;;;;;;;1.36;100.00;100283.19;5043667;28;20532;-72
2022/02/26 04:28:04;;;;;;;11.32;4.63;;;;;;;1.43;100.00;100296.94;5046030;28;20404;-72
2022/02/26 04:30:30;;;;;;;12.57;4.80;;;;;;;1.48;100.00;100294.81;5034548;28;20029;-71
2022/02/26 04:32:56;;;;;;;12.38;4.88;;;;;;;1.46;100.00;100305.56;5034688;28;20029;-72
2022/02/26 04:35:21;;;;;;;7.57;3.90;;;;;;;1.39;100.00;100301.66;5034000;28;20029;-71
2022/02/26 04:37:47;;;;;;;10.07;3.92;;;;;;;1.40;100.00;100303.34;5052149;28;20072;-71
2022/02/26 04:40:15;;;;;;;10.52;4.57;;;;;;;1.23;100.00;100280.56;5021978;28;20451;-72
2022/02/26 04:42:42;;;;;;;12.85;4.60;;;;;;;1.23;100.00;100299.22;5043317;28;20028;-71
2022/02/26 04:45:10;;;;;;;10.90;5.03;;;;;;;1.21;100.00;100302.94;5052987;28;20028;-71
2022/02/26 04:47:36;;;;;;;15.32;5.70;;;;;;;1.08;100.00;100287.78;5054758;28;20051;-72
2022/02/26 04:50:03;;;;;;;12.45;4.97;;;;;;;1.15;100.00;100306.00;5045419;28;20463;-71
2022/02/26 04:52:28;;;;;;;11.50;4.82;;;;;;;1.06;100.00;100303.03;5027869;28;20032;-71
2022/02/26 04:54:53;;;;;;;13.13;5.05;;;;;;;1.00;100.00;100282.16;5043171;28;20032;-71
2022/02/26 04:57:18;;;;;;;11.95;4.57;;;;;;;0.95;100.00;100289.59;5049687;28;20496;-71
2022/02/26 04:59:44;;;;;;;13.93;5.22;;;;;;;0.94;100.00;100290.53;5049406;28;20116;-71
2022/02/26 05:02:09;;;;;;;14.60;4.90;;;;;;;1.09;100.00;100315.28;5049968;28;20040;-71
2022/02/26 05:04:34;;;;;;;17.23;6.03;;;;;;;1.09;100.00;100309.97;5035114;28;20071;-74
2022/02/26 05:07:01;;;;;;;14.95;5.00;;;;;;;0.87;100.00;100278.63;5047037;28;20120;-80
2022/02/26 05:09:26;;;;;;;12.18;4.47;;;;;;;0.93;100.00;100288.84;5034624;28;20065;-78
2022/02/26 05:11:51;;;;;;;11.90;5.07;;;;;;;1.03;100.00;100315.72;5053292;28;20770;-78
2022/02/26 05:14:17;;;;;;;16.20;5.10;;;;;;;0.94;100.00;100301.19;5054586;28;20033;-79
2022/02/26 05:16:43;;;;;;;11.00;5.43;;;;;;;1.05;100.00;100320.00;5039690;28;20025;-79
2022/02/26 05:19:09;;;;;;;11.32;5.05;;;;;;;1.03;100.00;100300.56;5055760;28;20464;-76
2022/02/26 05:21:34;;;;;;;11.23;4.93;;;;;;;1.13;100.00;100305.25;5052062;28;20013;-78
2022/02/26 05:23:59;;;;;;;12.68;5.78;;;;;;;0.97;100.00;100290.34;5029435;28;20022;-77
2022/02/26 05:26:25;;;;;;;12.57;4.18;;;;;;;0.83;100.00;100293.94;5021802;28;20027;-78
2022/02/26 05:28:50;;;;;;;11.45;5.07;;;;;;;0.89;100.00;100319.31;5051821;28;20427;-78
2022/02/26 05:31:15;;;;;;;12.35;4.75;;;;;;;0.73;100.00;100297.34;5055434;28;20032;-79
2022/02/26 05:33:41;;;;;;;14.00;5.50;;;;;;;0.73;100.00;100289.34;5054018;28;20107;-79
2022/02/26 05:36:06;;;;;;;13.93;5.32;;;;;;;0.93;100.00;100319.97;5048424;28;20036;-79
2022/02/26 05:38:31;;;;;;;12.20;5.38;;;;;;;0.88;100.00;100317.63;5043292;28;20040;-79
2022/02/26 05:40:57;;;;;;;12.75;5.40;;;;;;;0.94;100.00;100329.66;5029151;28;20354;-79
2022/02/26 05:43:22;;;;;;;9.40;4.60;;;;;;;0.76;100.00;100315.78;5032985;28;20021;-79
2022/02/26 05:45:47;;;;;;;11.55;5.38;;;;;;;0.26;100.00;100262.28;5028980;28;20059;-76
2022/02/26 05:48:13;;;;;;;14.02;5.43;;;;;;;0.81;100.00;100340.28;5034967;28;20385;-75
2022/02/26 05:50:38;;;;;;;12.55;6.32;;;;;;;0.57;100.00;100329.47;5052051;28;20021;-77
2022/02/26 05:53:04;;;;;;;15.63;6.35;;;;;;;0.50;100.00;100317.50;5026981;28;20421;-81
2022/02/26 05:55:29;;;;;;;15.55;5.85;;;;;;;0.57;100.00;100332.13;5042323;28;20020;-80
2022/02/26 05:57:55;;;;;;;12.70;6.70;;;;;;;0.73;100.00;100369.25;5035804;28;20024;-76
2022/02/26 06:00:20;;;;;;;18.98;6.45;;;;;;;0.70;100.00;100365.00;5036869;28;20134;-79
2022/02/26 06:02:45;;;;;;;17.65;6.80;;;;;;;0.62;100.00;100356.66;5024187;28;20024;-78
2022/02/26 06:05:11;;;;;;;20.00;8.45;;;;;;;0.59;100.00;100349.72;5054761;28;20021;-80
2022/02/26 06:07:36;;;;;;;21.83;8.23;;;;;;;0.82;100.00;100380.16;5032020;28;20083;-71
2022/02/26 06:10:03;;;;;;;18.48;7.88;;;;;;;0.72;100.00;100359.56;5052538;28;20036;-71
2022/02/26 06:12:29;;;;;;;27.48;9.30;;;;;;;0.75;100.00;100359.34;5043500;28;20478;-75
2022/02/26 06:14:55;;;;;;;23.48;8.30;;;;;;;0.90;100.00;100363.66;5042310;28;20384;-76
2022/02/26 06:17:20;;;;;;;17.17;7.75;;;;;;;0.95;100.00;100361.53;5033344;28;20028;-75
2022/02/26 06:19:45;;;;;;;26.17;8.77;;;;;;;0.99;100.00;100363.03;5031913;28;20100;-75
2022/02/26 06:22:11;;;;;;;18.35;7.95;;;;;;;0.89;100.00;100369.94;5018194;28;20025;-73
2022/02/26 06:24:36;;;;;;;16.60;7.78;;;;;;;0.70;100.00;100345.50;5049736;28;20025;-72
2022/02/26 06:27:02;;;;;;;23.30;7.68;;;;;;;0.83;100.00;100373.03;5031008;28;20029;-75
2022/02/26 06:29:27;;;;;;;17.63;7.38;;;;;;;0.80;100.00;100378.56;5046051;28;20786;-75
2022/02/26 06:31:53;;;;;;;23.35;6.95;;;;;;;0.94;100.00;100389.13;5050711;28;20052;-78
2022/02/26 06:34:20;;;;;;;22.15;8.35;;;;;;;0.90;100.00;100377.00;5026219;28;20021;-72
2022/02/26 06:36:45;;;;;;;17.73;8.07;;;;;;;1.07;100.00;100397.16;5042003;28;20536;-70
2022/02/26 06:39:11;;;;;;;22.23;8.05;;;;;;;1.06;100.00;100380.31;5047659;28;20179;-73
2022/02/26 06:41:36;;;;;;;16.13;7.68;;;;;;;1.31;100.00;100410.66;5045049;28;20049;-73
2022/02/26 06:44:02;;;;;;;17.80;7.65;;;;;;;1.42;100.00;100418.78;5042494;28;20120;-74
2022/02/26 06:46:27;;;;;;;21.27;7.90;;;;;;;1.45;100.00;100394.56;5051417;28;20100;-75
2022/02/26 06:48:52;;;;;;;20.13;7.43;;;;;;;1.63;100.00;100410.25;5050572;28;20104;-74
2022/02/26 06:51:18;;;;;;;12.25;6.25;;;;;;;1.74;100.00;100402.34;5032738;28;20025;-72
2022/02/26 06:53:43;;;;;;;13.43;6.03;;;;;;;1.82;98.93;100424.00;5051581;28;20041;-74
2022/02/26 06:56:09;;;;;;;14.38;5.85;;;;;;;1.96;98.61;100425.69;5037346;28;20035;-76
2022/02/26 06:58:34;;;;;;;17.13;5.97;;;;;;;1.84;96.56;100405.22;5029913;28;20029;-76
2022/02/26 07:00:59;;;;;;;14.15;6.03;;;;;;;1.83;95.60;100407.03;5025977;28;20075;-78
2022/02/26 07:03:25;;;;;;;10.68;5.05;;;;;;;1.94;95.53;100399.13;5033242;28;20018;-80
2022/02/26 07:05:51;;;;;;;12.23;6.13;;;;;;;2.15;94.82;100422.59;5013697;28;20493;-70
2022/02/26 07:08:17;;;;;;;12.45;5.82;;;;;;;2.22;94.32;100434.53;5019894;28;20025;-71
2022/02/26 07:10:42;;;;;;;10.93;4.53;;;;;;;2.26;94.25;100409.31;5025065;28;20076;-72
2022/02/26 07:13:08;;;;;;;9.88;4.75;;;;;;;2.71;91.82;100432.78;5042659;28;20029;-72
2022/02/26 07:15:35;;;;;;;12.80;5.05;;;;;;;2.96;90.05;100418.44;5046938;28;20562;-72
2022/02/26 07:18:00;;;;;;;10.65;4.90;;;;;;;3.92;84.92;100420.88;5053360;28;20021;-72
2022/02/26 07:20:26;;;;;;;11.32;4.80;;;;;;;4.94;79.45;100435.00;5040691;28;20097;-71
2022/02/26 07:22:51;;;;;;;13.20;4.25;;;;;;;4.78;78.83;100438.94;5040616;28;20473;-71
2022/02/26 07:25:16;;;;;;;9.07;4.00;;;;;;;4.41;79.16;100445.59;5038790;28;20556;-72
2022/02/26 07:27:42;;;;;;;8.00;4.30;;;;;;;4.18;79.48;100418.81;5046118;28;20029;-72
2022/02/26 07:30:08;;;;;;;12.93;5.68;;;;;;;3.51;81.35;100371.44;5038705;28;20049;-72
2022/02/26 07:32:33;;;;;;;11.18;4.68;;;;;;;3.56;82.70;100441.50;5026937;28;20500;-72
2022/02/26 07:34:59;;;;;;;10.75;5.15;;;;;;;3.51;85.11;100465.97;5042249;28;20055;-72
2022/02/26 07:37:24;;;;;;;13.70;5.38;;;;;;;3.44;85.40;100461.19;5044468;28;20381;-71
2022/02/26 07:39:51;;;;;;;11.80;5.30;;;;;;;3.54;85.02;100458.66;5046372;28;20037;-70
2022/02/26 07:42:16;;;;;;;19.33;6.22;;;;;;;3.51;83.91;100446.34;5047406;28;20029;-70
2022/02/26 07:44:41;;;;;;;16.52;6.75;;;;;;;3.39;84.09;100440.13;5027557;28;20032;-71
2022/02/26 07:47:07;;;;;;;15.32;6.60;;;;;;;3.82;84.27;100468.09;5043009;28;20128;-70
2022/02/26 07:49:32;;;;;;;9.25;5.55;;;;;;;4.05;83.96;100459.09;5044572;28;20036;-70
2022/02/26 07:51:57;;;;;;;12.32;5.90;;;;;;;4.50;82.58;100466.28;5040682;28;20576;-70
2022/02/26 07:54:23;;;;;;;10.93;5.43;;;;;;;5.21;78.92;100483.69;5032291;28;20039;-73
2022/02/26 07:56:48;;;;;;;13.13;5.93;;;;;;;5.41;75.40;100468.59;5062037;28;20105;-71
2022/02/26 07:59:13;;;;;;;18.42;5.38;;;;;;;6.72;69.95;100486.84;5035962;28;20033;-77
2022/02/26 08:01:39;;;;;;;11.65;5.38;;;;;;;8.95;62.21;100481.13;5044317;28;20049;-77
2022/02/26 08:04:05;;;;;;;11.27;4.72;;;;;;;10.68;55.34;100465.22;5047033;28;20037;-73
2022/02/26 08:06:30;;;;;;;13.77;5.63;;;;;;;11.25;52.47;100431.19;5030167;28;20021;-75
2022/02/26 08:08:56;;;;;;;14.02;5.63;;;;;;;12.02;50.86;100469.66;5032914;28;20507;-76
2022/02/26 08:11:21;;;;;;;13.65;5.90;;;;;;;12.89;46.52;100461.56;5050650;28;20035;-76
2022/02/26 08:13:47;;;;;;;14.20;6.00;;;;;;;13.64;45.31;100465.53;5037458;28;20024;-77
2022/02/26 08:16:12;;;;;;;15.13;5.72;;;;;;;14.56;42.75;100482.50;5033409;28;20044;-75
2022/02/26 08:18:37;;;;;;;11.20;5.32;;;;;;;15.30;42.27;100465.16;5034774;28;20028;-74
2022/02/26 08:21:03;;;;;;;13.40;5.72;;;;;;;13.53;43.54;100478.53;5048349;28;20021;-76
2022/02/26 08:23:30;;;;;;;12.18;6.15;;;;;;;11.05;49.53;100495.66;5057573;28;20024;-77
2022/02/26 08:25:55;;;;;;;14.90;5.97;;;;;;;10.20;53.13;100493.72;5037883;28;20507;-72
2022/02/26 08:28:20;;;;;;;12.48;5.63;;;;;;;9.23;54.56;100491.06;5034850;28;20040;-75
2022/02/26 08:30:46;;;;;;;10.93;5.38;;;;;;;8.37;57.58;100475.16;5054093;28;20060;-76
2022/02/26 08:33:13;;;;;;;14.70;5.18;;;;;;;8.33;59.73;100477.28;5038727;28;20036;-77
2022/02/26 08:35:38;;;;;;;16.98;5.53;;;;;;;7.98;60.36;100494.13;5033182;28;20440;-74
2022/02/26 08:38:04;;;;;;;15.52;5.68;;;;;;;7.99;61.39;100503.91;5033514;28;20116;-72
2022/02/26 08:40:30;;;;;;;12.93;5.55;;;;;;;7.55;62.26;100498.16;5058750;28;20044;-78
2022/02/26 08:42:55;;;;;;;15.57;6.22;;;;;;;6.83;65.22;100494.81;5045912;28;20035;-81
2022/02/26 08:45:20;;;;;;;16.02;6.97;;;;;;;5.98;68.43;100481.72;5032166;28;20424;-77
2022/02/26 08:47:46;;;;;;;16.02;6.53;;;;;;;5.65;69.71;100475.53;5060307;28;20032;-77
2022/02/26 08:50:14;;;;;;;17.38;6.47;;;;;;;6.02;71.09;100510.03;5043796;28;20021;-70
2022/02/26 08:52:40;;;;;;;17.88;7.13;;;;;;;5.79;71.16;100495.84;5053341;28;20026;-74
2022/02/26 08:55:06;;;;;;;16.42;6.63;;;;;;;6.11;69.29;100509.25;5035875;28;20086;-66
2022/02/26 08:57:32;;;;;;;13.85;6.35;;;;;;;6.20;67.88;100495.00;5044403;28;20033;-76
2022/02/26 08:59:57;;;;;;;13.90;6.35;;;;;;;6.02;68.40;100446.38;5050632;28;20047;-74
2022/02/26 09:02:23;;;;;;;16.35;6.90;;;;;;;6.98;67.23;100489.91;5026128;28;20365;-78
2022/02/26 09:04:49;;;;;;;16.08;6.43;;;;;;;7.41;64.93;100486.84;5034894;28;20669;-76
2022/02/26 09:07:14;;;;;;;12.88;6.55;;;;;;;7.34;66.06;100482.16;5034055;28;20124;-74
2022/02/26 09:09:40;;;;;;;18.13;7.07;;;;;;;7.27;64.85;100494.47;5037160;28;20031;-69
2022/02/26 09:12:06;;;;;;;14.48;7.10;;;;;;;7.22;63.45;100506.50;5053258;28;20104;-75
2022/02/26 09:14:31;;;;;;;17.65;6.43;;;;;;;7.52;62.25;100488.53;5035125;28;20068;-72
2022/02/26 09:16:56;;;;;;;16.08;6.78;;;;;;;7.95;61.20;100497.97;5047467;28;20079;-73
2022/02/26 09:19:22;;;;;;;17.35;6.28;;;;;;;7.92;60.75;100454.31;5035082;28;20056;-73
2022/02/26 09:21:48;;;;;;;12.60;6.40;;;;;;;8.08;61.05;100490.44;5051414;28;20100;-74
2022/02/26 09:24:15;;;;;;;11.70;6.18;;;;;;;8.00;62.58;100506.47;5035321;28;20079;-75
2022/02/26 09:26:40;;;;;;;14.48;6.35;;;;;;;8.29;60.29;100494.78;5031077;28;20238;-74
2022/02/26 09:29:06;;;;;;;12.77;5.35;;;;;;;9.74;56.45;100486.78;5040238;28;20044;-74
2022/02/26 09:31:31;;;;;;;17.00;6.05;;;;;;;10.26;53.43;100459.75;5045411;28;20035;-75
2022/02/26 09:33:57;;;;;;;12.68;5.72;;;;;;;10.18;53.27;100476.78;5031727;28;20075;-74
2022/02/26 09:36:22;;;;;;;12.10;6.00;;;;;;;9.60;54.44;100463.88;5025476;28;20571;-72
2022/02/26 09:38:48;;;;;;;13.25;5.78;;;;;;;9.32;54.33;100457.69;5025507;28;20034;-74
2022/02/26 09:41:13;;;;;;;16.83;7.03;;;;;;;9.17;55.38;100468.22;5024900;28;20017;-75
2022/02/26 09:43:39;;;;;;;11.13;4.95;;;;;;;8.40;56.36;100513.50;5040811;28;20108;-78
2022/02/26 09:46:06;;;;;;;12.45;5.10;;;;;;;8.54;57.33;100487.88;5024639;28;20048;-74
2022/02/26 09:48:32;;;;;;;14.27;5.05;;;;;;;9.16;55.74;100498.91;5030032;28;20476;-66
2022/02/26 09:50:58;;;;;;;13.15;5.57;;;;;;;9.09;57.86;100490.56;5023030;28;20093;-67
2022/02/26 09:53:24;;;;;;;8.75;4.72;;;;;;;8.81;54.62;100489.75;5034914;28;20485;-67
2022/02/26 09:55:51;;;;;;;13.07;4.72;;;;;;;8.63;56.10;100505.03;5050926;28;20048;-67
2022/02/26 09:58:17;;;;;;;10.00;4.20;;;;;;;7.51;57.36;100486.81;5052960;28;20029;-67
2022/02/26 10:00:45;;;;;;;13.85;4.28;;;;;;;7.91;56.39;100504.63;5040749;28;20043;-67
2022/02/26 10:03:33;;;;;;;17.15;3.92;;;;;;;7.61;54.51;100511.06;5042890;28;20039;-67
2022/02/26 10:06:11;;;;;;;9.23;3.03;;;;;;;7.68;55.36;100510.34;5041544;28;20021;-68
2022/02/26 10:08:42;;;;;;;8.48;2.90;;;;;;;8.06;54.33;100508.59;5026310;28;20054;-70
2022/02/26 10:11:35;;;;;;;12.95;3.53;;;;;;;8.11;54.23;100514.38;5040781;28;20028;-67
2022/02/26 10:14:26;;;;;;;13.40;2.95;;;;;;;7.98;51.51;100518.41;5037426;28;20041;-68
2022/02/26 10:16:53;;;;;;;6.57;1.95;;;;;;;7.93;50.74;100516.13;5021108;28;20041;-67
2022/02/26 10:19:39;;;;;;;10.48;2.22;;;;;;;7.41;51.37;100512.88;5050047;28;20025;-68
2022/02/26 10:22:08;;;;;;;8.32;2.38;;;;;;;7.44;52.39;100509.91;5050512;28;20074;-68
2022/02/26 10:24:35;;;;;;;10.55;2.40;;;;;;;7.77;53.43;100521.25;5050475;28;20484;-68
2022/02/26 10:27:06;;;;;;;11.00;2.90;;;;;;;7.58;53.10;100479.88;5029359;28;20036;-68
2022/02/26 10:29:39;;;;;;;10.73;2.85;;;;;;;8.17;54.24;100514.81;5028809;28;20025;-68
2022/02/26 10:32:07;;;;;;;10.95;2.90;;;;;;;8.40;53.47;100518.88;5039839;28;20953;-77
2022/02/26 10:34:37;;;;;;;9.35;2.30;;;;;;;8.34;51.94;100481.69;5029993;28;20029;-79
2022/02/26 10:37:19;;;;;;;8.40;2.25;;;;;;;9.65;47.44;100502.09;5034970;28;20033;-74
2022/02/26 10:39:50;;;;;;;10.20;2.58;;;;;;;10.90;44.98;100479.19;5034741;28;20036;-78
2022/02/26 10:42:27;;;;;;;9.27;2.70;;;;;;;11.68;43.33;100496.94;5036622;28;20025;-78
2022/02/26 10:45:12;;;;;;;12.68;3.72;;;;;;;14.00;39.14;100479.31;5040554;28;20025;-77
2022/02/26 10:47:43;;;;;;;9.63;2.60;;;;;;;15.25;37.07;100475.81;5025888;28;20017;-79
2022/02/26 10:50:19;;;;;;;11.65;2.88;;;;;;;15.60;34.81;100485.00;5029395;28;20021;-81
2022/02/26 10:53:03;;;;;;;8.98;2.17;;;;;;;15.61;33.93;100480.38;5030916;28;20032;-79
2022/02/26 10:55:52;;;;;;;7.47;1.85;;;;;;;15.29;34.65;100488.84;5024566;28;20083;-72
2022/02/26 10:58:22;;;;;;;7.45;1.70;;;;;;;17.80;31.49;100453.41;5044527;28;20485;-72
2022/02/26 11:00:48;;;;;;;8.23;2.03;;;;;;;18.40;29.63;100470.63;5050372;28;21226;-72
2022/02/26 11:03:16;;;;;;;7.05;1.92;;;;;;;19.27;28.80;100468.44;5033150;28;20151;-71
2022/02/26 11:05:41;;;;;;;10.45;2.17;;;;;;;19.88;27.54;100480.72;5032259;28;20021;-71
2022/02/26 11:08:08;;;;;;;7.70;2.00;;;;;;;21.56;24.56;100464.88;5045665;28;20025;-70
2022/02/26 11:10:35;;;;;;;9.70;2.30;;;;;;;21.80;23.73;100463.06;5050679;28;20377;-69
2022/02/26 11:13:00;;;;;;;7.13;2.08;;;;;;;22.79;22.56;100460.41;5050439;28;20029;-70
2022/02/26 11:15:31;;;;;;;9.88;1.70;;;;;;;19.45;26.99;100463.03;5051707;28;20493;-70
2022/02/26 11:17:59;;;;;;;6.32;1.75;;;;;;;16.70;29.62;100469.88;5054357;28;20073;-70
2022/02/26 11:20:26;;;;;;;7.78;1.90;;;;;;;17.32;29.11;100462.56;5071510;28;20412;-70
2022/02/26 11:22:55;;;;;;;5.80;1.73;;;;;;;18.65;28.55;100456.22;5054707;28;20024;-70